createdAt,value
2022-09-22T00:00:34.856Z,15.43
2022-09-22T00:03:01.262Z,16.85
2022-09-22T00:05:27.578Z,17.15
2022-09-22T00:07:54.039Z,14.57
2022-09-22T00:10:23.367Z,14.73
2022-09-22T00:12:50.320Z,11.10
2022-09-22T00:15:17.670Z,11.57
2022-09-22T00:17:44.435Z,13.60
2022-09-22T00:20:14.044Z,12.02
2022-09-22T00:22:40.836Z,13.63
2022-09-22T00:25:08.298Z,14.23
2022-09-22T00:27:34.846Z,14.43
2022-09-22T00:30:01.276Z,11.45
2022-09-22T00:32:28.275Z,10.98
2022-09-22T00:34:54.566Z,11.95
2022-09-22T00:37:20.926Z,11.00
2022-09-22T00:39:47.329Z,11.48
2022-09-22T00:42:13.624Z,11.75
2022-09-22T00:44:40.078Z,12.65
2022-09-22T00:47:12.069Z,10.73
2022-09-22T00:49:44.549Z,13.70
2022-09-22T00:52:13.503Z,10.50
2022-09-22T00:54:40.107Z,9.85
2022-09-22T00:57:10.822Z,22.10
2022-09-22T00:59:37.587Z,13.88
2022-09-22T01:02:04.353Z,14.73
2022-09-22T01:04:30.846Z,13.27
2022-09-22T01:06:57.797Z,12.27
2022-09-22T01:09:24.244Z,12.57
2022-09-22T01:11:50.734Z,13.40
2022-09-22T01:14:33.094Z,14.20
2022-09-22T01:17:10.975Z,11.80
2022-09-22T01:19:49.478Z,12.95
2022-09-22T01:22:21.993Z,17.60
2022-09-22T01:25:00.490Z,15.13
2022-09-22T01:27:46.589Z,16.35
2022-09-22T01:32:58.083Z,16.30
2022-09-22T01:35:33.266Z,14.73
2022-09-22T01:38:02.366Z,13.07
2022-09-22T01:40:32.107Z,15.23
2022-09-22T01:43:07.866Z,12.73
2022-09-22T01:48:09.133Z,16.33
2022-09-22T01:50:46.840Z,18.38
2022-09-22T01:53:14.642Z,16.80
2022-09-22T01:55:43.004Z,15.50
2022-09-22T01:58:14.935Z,14.43
2022-09-22T02:00:46.769Z,17.42
2022-09-22T02:03:15.563Z,14.75
2022-09-22T02:05:45.599Z,16.63
2022-09-22T02:08:15.145Z,17.00
2022-09-22T02:10:45.368Z,19.10
2022-09-22T02:13:11.829Z,15.25
2022-09-22T02:15:56.981Z,15.50
2022-09-22T02:18:25.776Z,14.27
2022-09-22T02:20:52.228Z,12.98
2022-09-22T02:23:18.564Z,14.13
2022-09-22T02:25:45.850Z,16.17
2022-09-22T02:28:15.951Z,13.50
2022-09-22T02:30:58.904Z,15.23
2022-09-22T02:33:34.868Z,15.27
2022-09-22T02:36:12.459Z,16.98
2022-09-22T02:38:44.438Z,14.88
2022-09-22T02:41:14.927Z,14.43
2022-09-22T02:43:53.900Z,16.67
2022-09-22T02:46:23.759Z,16.30
2022-09-22T02:48:51.433Z,11.55
2022-09-22T02:51:18.480Z,13.45
2022-09-22T02:53:44.817Z,13.77
2022-09-22T02:56:11.302Z,12.50
2022-09-22T02:58:37.798Z,15.20
2022-09-22T03:01:04.291Z,13.48
2022-09-22T03:03:30.963Z,11.02
2022-09-22T03:05:59.503Z,11.68
2022-09-22T03:08:25.815Z,14.02
2022-09-22T03:10:52.195Z,19.23
2022-09-22T03:13:18.601Z,14.60
2022-09-22T03:15:45.691Z,12.30
2022-09-22T03:18:12.292Z,11.32
2022-09-22T03:20:38.639Z,18.58
2022-09-22T03:23:05.073Z,15.65
2022-09-22T03:25:31.381Z,13.10
2022-09-22T03:27:57.712Z,13.82
2022-09-22T03:30:24.121Z,19.58
2022-09-22T03:32:50.476Z,18.65
2022-09-22T03:35:16.833Z,17.90
2022-09-22T03:37:43.294Z,16.27
2022-09-22T03:40:09.868Z,17.95
2022-09-22T03:42:36.300Z,18.77
2022-09-22T03:45:04.436Z,16.65
2022-09-22T03:47:31.012Z,14.77
2022-09-22T03:49:57.464Z,17.55
2022-09-22T03:52:24.130Z,12.82
2022-09-22T03:54:52.117Z,25.63
2022-09-22T03:57:18.501Z,13.82
2022-09-22T03:59:44.808Z,12.23
2022-09-22T04:02:11.473Z,14.40
2022-09-22T04:04:37.869Z,13.60
2022-09-22T04:07:07.221Z,13.73
2022-09-22T04:09:33.931Z,12.55
2022-09-22T04:12:03.420Z,15.50
2022-09-22T04:14:33.055Z,11.63
2022-09-22T04:16:59.432Z,12.82
2022-09-22T04:19:26.348Z,15.13
2022-09-22T04:21:57.045Z,13.88
2022-09-22T04:24:24.396Z,19.52
2022-09-22T04:27:08.600Z,16.63
2022-09-22T04:29:37.431Z,17.08
2022-09-22T04:32:04.129Z,14.15
2022-09-22T04:34:30.443Z,14.55
2022-09-22T04:36:56.962Z,17.85
2022-09-22T04:39:24.070Z,14.82
2022-09-22T04:41:50.984Z,17.90
2022-09-22T04:44:17.405Z,12.65
2022-09-22T04:46:46.177Z,12.88
2022-09-22T04:49:13.234Z,18.80
2022-09-22T04:51:39.593Z,11.63
2022-09-22T04:54:06.068Z,12.77
2022-09-22T04:56:32.493Z,13.82
2022-09-22T04:58:58.843Z,13.07
2022-09-22T05:01:27.417Z,17.85
2022-09-22T05:03:54.055Z,15.68
2022-09-22T05:06:20.416Z,14.25
2022-09-22T05:08:46.713Z,15.13
2022-09-22T05:11:13.068Z,12.88
2022-09-22T05:13:41.049Z,18.10
2022-09-22T05:16:08.374Z,11.20
2022-09-22T05:18:34.990Z,9.68
2022-09-22T05:21:01.993Z,12.32
2022-09-22T05:23:28.372Z,9.85
2022-09-22T05:25:54.909Z,9.93
2022-09-22T05:28:24.287Z,9.38
2022-09-22T05:30:51.462Z,11.57
2022-09-22T05:33:17.926Z,10.15
2022-09-22T05:35:44.281Z,9.27
2022-09-22T05:38:10.637Z,14.48
2022-09-22T05:40:37.050Z,11.20
2022-09-22T05:43:03.471Z,9.65
2022-09-22T05:45:29.895Z,12.95
2022-09-22T05:47:58.247Z,10.18
2022-09-22T05:50:24.693Z,13.30
2022-09-22T05:52:51.040Z,13.93
2022-09-22T05:55:17.835Z,13.00
2022-09-22T05:57:44.138Z,10.02
2022-09-22T06:00:10.980Z,15.38
2022-09-22T06:02:37.364Z,13.00
2022-09-22T06:05:03.802Z,13.18
2022-09-22T06:07:30.240Z,17.60
2022-09-22T06:09:56.625Z,14.20
2022-09-22T06:12:23.061Z,12.88
2022-09-22T06:14:49.349Z,13.07
2022-09-22T06:17:18.613Z,17.23
2022-09-22T06:19:49.763Z,16.77
2022-09-22T06:22:17.090Z,16.98
2022-09-22T06:24:43.649Z,13.98
2022-09-22T06:27:10.006Z,22.38
2022-09-22T06:29:37.948Z,20.17
2022-09-22T06:32:07.888Z,16.77
2022-09-22T06:34:35.066Z,26.67
2022-09-22T06:37:02.284Z,24.65
2022-09-22T06:39:29.030Z,23.50
2022-09-22T06:41:56.591Z,18.25
2022-09-22T06:44:25.283Z,22.42
2022-09-22T06:46:51.601Z,27.88
2022-09-22T06:49:18.092Z,21.70
2022-09-22T06:51:44.628Z,28.95
2022-09-22T06:54:11.591Z,25.45
2022-09-22T06:56:40.212Z,27.15
2022-09-22T06:59:10.966Z,29.33
2022-09-22T07:01:38.038Z,29.30
2022-09-22T07:04:04.817Z,28.70
2022-09-22T07:06:31.430Z,21.50
2022-09-22T07:08:57.814Z,25.73
2022-09-22T07:11:24.204Z,28.13
2022-09-22T07:13:54.338Z,21.52
2022-09-22T07:16:22.708Z,22.73
2022-09-22T07:18:50.091Z,19.95
2022-09-22T07:21:20.957Z,17.48
2022-09-22T07:23:49.900Z,20.42
2022-09-22T07:26:20.538Z,22.88
2022-09-22T07:28:50.327Z,20.92
2022-09-22T07:31:17.294Z,20.42
2022-09-22T07:33:44.792Z,16.10
2022-09-22T07:36:15.715Z,16.95
2022-09-22T07:38:43.034Z,15.85
2022-09-22T07:41:12.167Z,21.42
2022-09-22T07:43:39.381Z,18.85
2022-09-22T07:46:06.130Z,20.35
2022-09-22T07:48:41.609Z,15.07
2022-09-22T07:51:15.738Z,16.33
2022-09-22T07:53:43.053Z,13.70
2022-09-22T07:56:13.478Z,14.52
2022-09-22T07:58:41.246Z,18.48
2022-09-22T08:01:10.313Z,17.33
2022-09-22T08:03:37.939Z,14.35
2022-09-22T08:06:10.297Z,12.30
2022-09-22T08:08:37.633Z,19.08
2022-09-22T08:11:05.024Z,12.45
2022-09-22T08:13:31.602Z,15.95
2022-09-22T08:16:02.228Z,14.02
2022-09-22T08:18:28.696Z,13.82
2022-09-22T08:20:55.001Z,16.73
2022-09-22T08:23:21.357Z,13.13
2022-09-22T08:25:47.710Z,10.30
2022-09-22T08:28:14.364Z,13.60
2022-09-22T08:30:45.180Z,13.35
2022-09-22T08:33:11.470Z,10.18
2022-09-22T08:35:37.869Z,12.75
2022-09-22T08:38:06.242Z,12.60
2022-09-22T08:40:35.071Z,9.00
2022-09-22T08:43:01.665Z,10.20
2022-09-22T08:45:33.319Z,8.48
2022-09-22T08:48:25.403Z,10.73
2022-09-22T08:51:11.284Z,12.07
2022-09-22T08:53:45.655Z,10.93
2022-09-22T08:56:20.201Z,5.78
2022-09-22T08:58:50.558Z,7.35
2022-09-22T09:01:35.237Z,6.70
2022-09-22T09:04:01.615Z,6.85
2022-09-22T09:06:47.571Z,7.68
2022-09-22T09:09:13.921Z,10.05
2022-09-22T09:11:46.589Z,6.32
2022-09-22T09:14:27.999Z,8.32
2022-09-22T09:17:00.027Z,8.75
2022-09-22T09:19:47.816Z,7.00
2022-09-22T09:22:14.112Z,10.88
2022-09-22T09:27:30.424Z,8.43
2022-09-22T09:30:03.263Z,4.13
2022-09-22T09:32:34.500Z,4.10
2022-09-22T09:35:01.874Z,5.88
2022-09-22T09:37:28.794Z,4.57
2022-09-22T09:39:55.870Z,2.58
2022-09-22T09:42:25.284Z,5.13
2022-09-22T09:44:55.104Z,8.05
2022-09-22T09:47:24.486Z,2.58
2022-09-22T09:49:52.805Z,4.60
2022-09-22T09:52:20.967Z,4.57
2022-09-22T09:54:47.552Z,5.70
2022-09-22T09:57:15.367Z,3.45
2022-09-22T10:00:04.558Z,4.22
2022-09-22T10:02:38.696Z,2.45
2022-09-22T10:05:07.648Z,9.75
2022-09-22T10:07:41.693Z,3.92
2022-09-22T10:10:27.125Z,4.88
2022-09-22T10:12:53.788Z,2.03
2022-09-22T10:15:24.129Z,2.50
2022-09-22T10:17:51.268Z,3.67
2022-09-22T10:20:17.591Z,3.22
2022-09-22T10:22:43.991Z,2.25
2022-09-22T10:25:19.488Z,2.10
2022-09-22T10:27:58.705Z,3.13
2022-09-22T10:30:25.730Z,2.65
2022-09-22T10:33:05.041Z,3.85
2022-09-22T10:35:33.660Z,2.25
2022-09-22T10:38:10.311Z,2.22
2022-09-22T10:40:39.214Z,1.42
2022-09-22T10:43:07.109Z,2.30
2022-09-22T10:45:47.582Z,2.13
2022-09-22T10:48:29.466Z,2.75
2022-09-22T10:50:59.732Z,4.22
2022-09-22T10:53:35.558Z,1.85
2022-09-22T10:56:13.469Z,2.45
2022-09-22T10:58:49.076Z,2.80
2022-09-22T11:04:02.517Z,2.05
2022-09-22T11:07:02.960Z,1.25
2022-09-22T11:09:56.932Z,3.97
2022-09-22T11:12:46.761Z,3.85
2022-09-22T11:15:22.365Z,4.43
2022-09-22T11:17:52.157Z,3.75
2022-09-22T11:20:37.184Z,1.92
2022-09-22T11:23:17.163Z,2.65
2022-09-22T11:25:54.254Z,4.28
2022-09-22T11:28:39.146Z,3.28
2022-09-22T11:31:05.725Z,1.58
2022-09-22T11:33:50.678Z,1.98
2022-09-22T11:36:17.012Z,3.80
2022-09-22T11:39:01.651Z,1.73
2022-09-22T11:41:28.170Z,5.05
2022-09-22T11:44:06.375Z,3.33
2022-09-22T11:46:42.504Z,4.13
2022-09-22T11:49:08.956Z,7.43
2022-09-22T11:51:35.242Z,6.78
2022-09-22T11:54:10.857Z,5.82
2022-09-22T11:56:59.571Z,3.05
2022-09-22T11:59:35.214Z,2.88
2022-09-22T12:02:04.672Z,1.65
2022-09-22T12:04:36.136Z,1.85
2022-09-22T12:07:03.277Z,2.78
2022-09-22T12:09:38.955Z,1.40
2022-09-22T12:12:06.156Z,3.00
2022-09-22T12:14:33.120Z,2.65
2022-09-22T12:17:02.190Z,2.28
2022-09-22T12:22:42.234Z,3.38
2022-09-22T12:25:25.880Z,2.90
2022-09-22T12:28:01.790Z,3.10
2022-09-22T12:30:28.165Z,2.03
2022-09-22T12:32:54.583Z,2.95
2022-09-22T12:35:30.292Z,2.95
2022-09-22T12:38:00.838Z,2.80
2022-09-22T12:40:32.723Z,2.53
2022-09-22T12:43:01.910Z,2.60
2022-09-22T12:45:31.517Z,3.72
2022-09-22T12:47:59.332Z,2.13
2022-09-22T12:50:31.845Z,4.38
2022-09-22T12:53:16.980Z,3.45
2022-09-22T12:55:43.366Z,5.40
2022-09-22T12:58:21.348Z,7.93
2022-09-22T13:00:49.132Z,4.95
2022-09-22T13:03:24.444Z,5.65
2022-09-22T13:05:50.738Z,2.80
2022-09-22T13:08:18.386Z,8.07
2022-09-22T13:10:55.247Z,21.15
2022-09-22T13:13:24.807Z,9.18
2022-09-22T13:15:51.750Z,18.30
2022-09-22T13:18:37.863Z,10.95
2022-09-22T13:23:30.753Z,6.90
2022-09-22T13:26:05.023Z,16.27
2022-09-22T13:28:31.499Z,10.93
2022-09-22T13:31:09.866Z,9.27
2022-09-22T13:33:36.333Z,5.15
2022-09-22T13:36:04.873Z,1.40
2022-09-22T13:38:33.200Z,1.00
2022-09-22T13:40:59.635Z,0.85
2022-09-22T13:43:37.850Z,4.18
2022-09-22T13:46:04.798Z,8.70
2022-09-22T13:48:36.803Z,7.38
2022-09-22T13:51:05.372Z,1.33
2022-09-22T13:53:32.338Z,1.25
2022-09-22T13:55:59.545Z,1.35
2022-09-22T13:58:34.363Z,8.05
2022-09-22T14:01:13.156Z,8.30
2022-09-22T14:03:40.316Z,7.25
2022-09-22T14:06:11.686Z,4.60
2022-09-22T14:08:38.301Z,3.55
2022-09-22T14:11:06.163Z,1.38
2022-09-22T14:13:35.965Z,3.13
2022-09-22T14:16:07.321Z,2.75
2022-09-22T14:18:36.350Z,2.97
2022-09-22T14:21:02.700Z,1.17
2022-09-22T14:23:30.575Z,1.65
2022-09-22T14:25:59.374Z,6.00
2022-09-22T14:28:28.020Z,5.85
2022-09-22T14:30:54.586Z,16.65
2022-09-22T14:33:22.639Z,17.20
2022-09-22T14:35:52.112Z,16.05
2022-09-22T14:38:21.350Z,17.08
2022-09-22T14:40:54.862Z,6.65
2022-09-22T14:43:35.546Z,11.77
2022-09-22T14:46:08.671Z,15.98
2022-09-22T14:48:38.950Z,8.52
2022-09-22T14:51:07.452Z,12.60
2022-09-22T14:53:41.087Z,15.70
2022-09-22T14:56:16.331Z,8.65
2022-09-22T14:58:43.523Z,4.05
2022-09-22T15:01:31.741Z,4.43
2022-09-22T15:04:04.314Z,4.93
2022-09-22T15:06:37.304Z,1.55
2022-09-22T15:09:04.710Z,4.30
2022-09-22T15:11:49.934Z,2.88
2022-09-22T15:14:34.905Z,1.58
2022-09-22T15:17:20.914Z,1.75
2022-09-22T15:19:57.105Z,1.27
2022-09-22T15:22:24.491Z,5.40
2022-09-22T15:24:51.365Z,1.05
2022-09-22T15:27:17.797Z,1.90
2022-09-22T15:29:46.219Z,3.97
2022-09-22T15:32:12.799Z,2.47
2022-09-22T15:34:44.666Z,2.88
2022-09-22T15:37:15.228Z,2.75
2022-09-22T15:39:42.214Z,2.28
2022-09-22T15:42:13.474Z,2.30
2022-09-22T15:44:40.451Z,1.85
2022-09-22T15:47:10.459Z,1.38
2022-09-22T15:49:36.821Z,2.55
2022-09-22T15:52:04.808Z,1.30
2022-09-22T15:54:31.604Z,1.90
2022-09-22T15:56:59.677Z,3.05
2022-09-22T15:59:28.007Z,3.88
2022-09-22T16:01:56.958Z,3.15
2022-09-22T16:04:23.725Z,1.80
2022-09-22T16:06:53.075Z,4.82
2022-09-22T16:09:19.793Z,1.77
2022-09-22T16:11:46.609Z,1.42
2022-09-22T16:14:12.930Z,2.03
2022-09-22T16:16:39.599Z,4.28
2022-09-22T16:19:09.497Z,1.77
2022-09-22T16:21:36.961Z,1.65
2022-09-22T16:24:08.477Z,2.75
2022-09-22T16:26:35.904Z,1.90
2022-09-22T16:29:02.781Z,4.70
2022-09-22T16:31:29.210Z,1.40
2022-09-22T16:34:00.528Z,1.50
2022-09-22T16:36:28.809Z,4.43
2022-09-22T16:38:55.438Z,3.72
2022-09-22T16:41:24.172Z,1.40
2022-09-22T16:43:50.995Z,3.30
2022-09-22T16:46:35.882Z,2.92
2022-09-22T16:49:05.329Z,2.47
2022-09-22T16:51:33.416Z,1.90
2022-09-22T16:54:00.055Z,1.83
2022-09-22T16:56:27.332Z,2.08
2022-09-22T16:58:54.365Z,1.83
2022-09-22T17:01:20.873Z,1.52
2022-09-22T17:03:49.416Z,2.28
2022-09-22T17:06:16.597Z,2.63
2022-09-22T17:08:43.874Z,3.13
2022-09-22T17:11:13.538Z,2.45
2022-09-22T17:13:43.513Z,4.70
2022-09-22T17:16:22.088Z,4.93
2022-09-22T17:18:52.570Z,3.20
2022-09-22T17:21:21.969Z,3.92
2022-09-22T17:23:52.552Z,3.42
2022-09-22T17:26:20.270Z,3.75
2022-09-22T17:28:47.238Z,3.60
2022-09-22T17:31:13.758Z,5.05
2022-09-22T17:33:50.104Z,5.55
2022-09-22T17:36:23.102Z,2.95
2022-09-22T17:38:50.920Z,3.72
2022-09-22T17:41:19.692Z,5.22
2022-09-22T17:43:48.055Z,3.75
2022-09-22T17:46:15.671Z,4.00
2022-09-22T17:49:01.301Z,4.80
2022-09-22T17:51:46.137Z,8.43
2022-09-22T17:54:47.194Z,5.80
2022-09-22T17:57:15.179Z,8.50
2022-09-22T17:59:41.666Z,4.57
2022-09-22T18:02:10.461Z,4.70
2022-09-22T18:04:37.271Z,9.00
2022-09-22T18:07:06.640Z,5.03
2022-09-22T18:09:37.044Z,4.07
2022-09-22T18:12:04.379Z,6.72
2022-09-22T18:14:34.404Z,6.78
2022-09-22T18:17:00.846Z,5.95
2022-09-22T18:19:34.624Z,4.38
2022-09-22T18:22:02.818Z,4.60
2022-09-22T18:24:29.381Z,4.60
2022-09-22T18:26:55.719Z,5.28
2022-09-22T18:29:22.116Z,6.20
2022-09-22T18:31:53.090Z,5.40
2022-09-22T18:34:19.386Z,5.45
2022-09-22T18:36:45.981Z,6.47
2022-09-22T18:39:12.922Z,5.80
2022-09-22T18:41:39.425Z,5.65
2022-09-22T18:44:06.301Z,5.93
2022-09-22T18:46:34.690Z,7.53
2022-09-22T18:49:09.392Z,5.60
2022-09-22T18:51:37.184Z,6.78
2022-09-22T18:54:15.310Z,7.97
2022-09-22T18:56:43.030Z,7.22
2022-09-22T18:59:11.374Z,9.85
2022-09-22T19:01:37.866Z,10.38
2022-09-22T19:04:05.840Z,9.57
2022-09-22T19:06:52.341Z,10.05
2022-09-22T19:09:19.102Z,9.07
2022-09-22T19:11:45.431Z,9.82
2022-09-22T19:14:11.700Z,14.20
2022-09-22T19:16:42.310Z,12.45
2022-09-22T19:19:08.850Z,12.63
2022-09-22T19:21:38.078Z,11.93
2022-09-22T19:24:06.360Z,14.77
2022-09-22T19:26:32.859Z,13.68
2022-09-22T19:28:59.170Z,16.67
2022-09-22T19:31:25.545Z,12.45
2022-09-22T19:33:51.905Z,12.05
2022-09-22T19:36:18.188Z,12.07
2022-09-22T19:38:44.595Z,10.60
2022-09-22T19:41:12.198Z,15.75
2022-09-22T19:43:38.491Z,12.10
2022-09-22T19:46:04.927Z,12.48
2022-09-22T19:48:31.325Z,9.73
2022-09-22T19:50:59.464Z,14.82
2022-09-22T19:53:25.880Z,11.40
2022-09-22T19:55:53.759Z,8.93
2022-09-22T19:58:20.076Z,8.10
2022-09-22T20:00:47.252Z,10.88
2022-09-22T20:03:13.651Z,10.13
2022-09-22T20:05:40.169Z,10.60
2022-09-22T20:08:08.378Z,9.65
2022-09-22T20:10:37.029Z,8.88
2022-09-22T20:13:23.350Z,10.50
2022-09-22T20:15:49.673Z,11.25
2022-09-22T20:18:15.986Z,11.05
2022-09-22T20:20:42.370Z,9.38
2022-09-22T20:23:08.700Z,8.65
2022-09-22T20:25:35.136Z,10.57
2022-09-22T20:28:01.652Z,10.68
2022-09-22T20:30:27.986Z,8.60
2022-09-22T20:32:54.338Z,9.23
2022-09-22T20:35:23.157Z,13.20
2022-09-22T20:37:51.401Z,12.30
2022-09-22T20:40:20.925Z,10.52
2022-09-22T20:42:48.592Z,10.52
2022-09-22T20:45:15.136Z,10.95
2022-09-22T20:47:42.031Z,12.60
2022-09-22T20:50:08.589Z,11.77
2022-09-22T20:52:34.894Z,12.18
2022-09-22T20:55:01.455Z,14.35
2022-09-22T20:57:31.028Z,11.25
2022-09-22T20:59:57.910Z,10.48
2022-09-22T21:02:25.004Z,14.77
2022-09-22T21:04:53.337Z,14.45
2022-09-22T21:07:19.867Z,15.02
2022-09-22T21:10:04.768Z,12.57
2022-09-22T21:12:31.649Z,11.63
2022-09-22T21:14:58.332Z,11.15
2022-09-22T21:17:25.017Z,10.35
2022-09-22T21:19:51.468Z,11.30
2022-09-22T21:22:17.837Z,12.43
2022-09-22T21:24:45.774Z,10.70
2022-09-22T21:27:15.837Z,8.90
2022-09-22T21:29:42.331Z,12.18
2022-09-22T21:32:09.478Z,11.20
2022-09-22T21:34:36.470Z,11.27
2022-09-22T21:37:03.550Z,13.10
2022-09-22T21:39:29.917Z,13.70
2022-09-22T21:41:56.455Z,11.88
2022-09-22T21:44:23.982Z,12.40
2022-09-22T21:46:50.299Z,13.15
2022-09-22T21:49:16.842Z,14.85
2022-09-22T21:51:44.184Z,12.20
2022-09-22T21:54:14.702Z,10.90
2022-09-22T21:56:41.300Z,9.38
2022-09-22T21:59:08.044Z,10.05
2022-09-22T22:01:35.884Z,9.70
2022-09-22T22:04:02.806Z,7.35
2022-09-22T22:06:31.101Z,11.75
2022-09-22T22:09:04.158Z,14.90
2022-09-22T22:11:31.139Z,10.50
2022-09-22T22:13:58.177Z,10.93
2022-09-22T22:16:25.887Z,13.57
2022-09-22T22:18:52.282Z,11.57
2022-09-22T22:21:19.778Z,11.32
2022-09-22T22:23:47.442Z,11.27
2022-09-22T22:26:16.913Z,14.93
2022-09-22T22:28:44.112Z,14.02
2022-09-22T22:31:12.787Z,13.50
2022-09-22T22:33:39.930Z,13.30
2022-09-22T22:36:07.964Z,10.57
2022-09-22T22:38:38.184Z,9.98
2022-09-22T22:41:06.484Z,9.98
2022-09-22T22:43:33.145Z,13.23
2022-09-22T22:45:59.772Z,10.88
2022-09-22T22:48:26.755Z,11.57
2022-09-22T22:50:53.863Z,10.18
2022-09-22T22:53:24.277Z,10.70
2022-09-22T22:55:57.954Z,11.63
2022-09-22T22:58:25.267Z,17.45
2022-09-22T23:00:59.225Z,11.90
2022-09-22T23:03:26.423Z,15.90
2022-09-22T23:05:56.610Z,16.77
2022-09-22T23:08:22.914Z,14.80
2022-09-22T23:10:49.202Z,16.00
2022-09-22T23:13:15.623Z,16.60
2022-09-22T23:15:42.004Z,15.75
2022-09-22T23:18:08.405Z,14.80
2022-09-22T23:20:35.680Z,13.35
2022-09-22T23:23:03.549Z,15.30
2022-09-22T23:25:29.851Z,17.02
2022-09-22T23:27:56.369Z,15.63
2022-09-22T23:30:22.683Z,11.95
2022-09-22T23:32:48.960Z,12.95
2022-09-22T23:35:15.263Z,14.13
2022-09-22T23:37:41.602Z,16.33
2022-09-22T23:40:12.119Z,16.00
2022-09-22T23:42:38.654Z,14.10
2022-09-22T23:45:05.254Z,16.50
2022-09-22T23:47:32.881Z,14.57
2022-09-22T23:50:00.440Z,12.90
2022-09-22T23:52:27.108Z,13.32
2022-09-22T23:54:53.414Z,13.63
2022-09-22T23:57:22.673Z,14.30
2022-09-22T23:59:51.303Z,17.30
